createdAt,value
2018-03-11T00:00:15.400Z,99.99
2018-03-11T00:02:00.511Z,99.99
2018-03-11T00:03:00.784Z,99.99
2018-03-11T00:04:00.548Z,99.99
2018-03-11T00:05:00.818Z,99.99
2018-03-11T00:06:00.836Z,99.99
2018-03-11T00:07:00.856Z,99.99
2018-03-11T00:08:00.894Z,99.99
2018-03-11T00:09:00.892Z,99.99
2018-03-11T00:10:00.908Z,99.99
2018-03-11T00:11:00.926Z,99.99
2018-03-11T00:12:00.940Z,99.99
2018-03-11T00:13:00.966Z,99.99
2018-03-11T00:14:00.980Z,99.99
2018-03-11T00:15:15.665Z,99.99
2018-03-11T00:16:01.013Z,99.99
2018-03-11T00:17:01.031Z,99.99
2018-03-11T00:18:01.052Z,99.99
2018-03-11T00:19:01.067Z,99.99
2018-03-11T00:20:01.086Z,99.99
2018-03-11T00:21:01.099Z,99.99
2018-03-11T00:22:01.122Z,99.99
2018-03-11T00:23:01.138Z,99.99
2018-03-11T00:24:01.159Z,99.99
2018-03-11T00:25:01.173Z,99.99
2018-03-11T00:26:01.189Z,99.99
2018-03-11T00:27:01.212Z,99.99
2018-03-11T00:28:01.229Z,99.99
2018-03-11T00:29:01.245Z,99.99
2018-03-11T00:30:01.258Z,99.99
2018-03-11T00:31:01.280Z,99.99
2018-03-11T00:32:01.300Z,99.99
2018-03-11T00:33:01.311Z,99.99
2018-03-11T00:34:01.336Z,99.99
2018-03-11T00:35:01.349Z,99.99
2018-03-11T00:36:01.364Z,99.99
2018-03-11T00:37:01.384Z,99.99
2018-03-11T00:38:01.399Z,99.99
2018-03-11T00:39:01.418Z,99.99
2018-03-11T00:40:01.435Z,99.99
2018-03-11T00:41:01.508Z,99.99
2018-03-11T00:42:01.216Z,99.99
2018-03-11T00:43:01.489Z,99.99
2018-03-11T00:44:01.251Z,99.99
2018-03-11T00:45:01.522Z,99.99
2018-03-11T00:46:01.580Z,99.99
2018-03-11T00:47:16.227Z,99.99
2018-03-11T00:49:01.597Z,99.99
2018-03-11T00:50:01.611Z,99.99
2018-03-11T00:51:01.629Z,99.99
2018-03-11T00:52:01.392Z,99.99
2018-03-11T00:53:01.669Z,99.99
2018-03-11T00:54:01.683Z,99.99
2018-03-11T00:55:01.700Z,99.99
2018-03-11T00:56:01.718Z,99.99
2018-03-11T00:57:01.733Z,99.99
2018-03-11T00:58:01.753Z,99.99
2018-03-11T00:59:01.776Z,99.99
2018-03-11T01:00:01.788Z,99.99
2018-03-11T01:01:01.802Z,99.99
2018-03-11T01:02:01.834Z,99.99
2018-03-11T01:03:16.508Z,99.99
2018-03-11T01:04:01.859Z,99.99
2018-03-11T01:05:01.872Z,99.99
2018-03-11T01:06:01.894Z,99.99
2018-03-11T01:07:01.911Z,99.99
2018-03-11T01:08:01.926Z,99.99
2018-03-11T01:09:01.944Z,99.99
2018-03-11T01:10:01.961Z,99.99
2018-03-11T01:11:01.977Z,99.99
2018-03-11T01:12:01.999Z,99.99
2018-03-11T01:13:02.018Z,99.99
2018-03-11T01:14:02.143Z,99.99
2018-03-11T01:15:02.092Z,99.99
2018-03-11T01:16:02.070Z,99.99
2018-03-11T01:17:02.089Z,99.99
2018-03-11T01:18:02.100Z,99.99
2018-03-11T01:19:16.785Z,99.99
2018-03-11T01:22:02.170Z,99.99
2018-03-11T01:23:02.186Z,99.99
2018-03-11T01:24:02.203Z,99.99
2018-03-11T01:25:02.221Z,99.99
2018-03-11T01:26:02.242Z,99.99
2018-03-11T01:27:02.256Z,99.99
2018-03-11T01:28:02.272Z,99.99
2018-03-11T01:29:02.294Z,99.99
2018-03-11T01:30:02.305Z,99.99
2018-03-11T01:31:02.070Z,99.99
2018-03-11T01:32:02.342Z,99.99
2018-03-11T01:33:02.361Z,99.99
2018-03-11T01:34:02.389Z,99.99
2018-03-11T01:35:17.062Z,99.99
2018-03-11T01:36:02.414Z,99.99
2018-03-11T01:37:02.436Z,99.99
2018-03-11T01:38:02.445Z,99.99
2018-03-11T01:39:02.461Z,99.99
2018-03-11T01:40:02.483Z,99.99
2018-03-11T01:41:02.497Z,99.99
2018-03-11T01:42:02.259Z,99.99
2018-03-11T01:43:02.538Z,99.99
2018-03-11T01:44:02.548Z,99.99
2018-03-11T01:45:02.576Z,99.99
2018-03-11T01:46:02.581Z,99.99
2018-03-11T01:47:02.599Z,99.99
2018-03-11T01:48:02.363Z,99.99
2018-03-11T01:49:02.638Z,99.99
2018-03-11T01:50:17.321Z,99.99
2018-03-11T01:51:02.418Z,99.99
2018-03-11T01:52:02.687Z,99.99
2018-03-11T01:54:02.466Z,99.99
2018-03-11T01:55:02.736Z,99.99
2018-03-11T01:56:02.756Z,99.99
2018-03-11T01:57:02.773Z,99.99
2018-03-11T01:58:02.795Z,99.99
2018-03-11T01:59:02.805Z,99.99
2018-03-11T02:00:02.574Z,99.99
2018-03-11T02:01:02.842Z,99.99
2018-03-11T02:02:02.862Z,99.99
2018-03-11T02:04:02.894Z,99.99
2018-03-11T02:06:02.926Z,99.99
2018-03-11T02:08:02.963Z,99.99
2018-03-11T02:09:02.981Z,99.99
2018-03-11T02:10:03.040Z,99.99
2018-03-11T02:11:03.015Z,99.99
2018-03-11T02:12:02.778Z,99.99
2018-03-11T02:13:03.054Z,99.99
2018-03-11T02:14:02.810Z,99.99
2018-03-11T02:15:02.824Z,99.99
2018-03-11T02:16:03.103Z,99.99
2018-03-11T02:17:03.118Z,99.99
2018-03-11T02:18:02.879Z,99.99
2018-03-11T02:19:02.895Z,99.99
2018-03-11T02:20:03.173Z,99.99
2018-03-11T02:22:17.871Z,99.99
2018-03-11T02:23:03.218Z,99.99
2018-03-11T02:24:02.983Z,99.99
2018-03-11T02:25:03.255Z,99.99
2018-03-11T02:26:03.016Z,99.99
2018-03-11T02:27:03.290Z,99.99
2018-03-11T02:28:03.308Z,99.99
2018-03-11T02:29:03.369Z,99.99
2018-03-11T02:30:03.352Z,99.99
2018-03-11T02:31:03.357Z,99.99
2018-03-11T02:32:03.118Z,99.99
2018-03-11T02:33:03.395Z,99.99
2018-03-11T02:34:03.155Z,99.99
2018-03-11T02:35:03.434Z,99.99
2018-03-11T02:36:03.445Z,99.99
2018-03-11T02:37:03.469Z,99.99
2018-03-11T02:38:18.148Z,99.99
2018-03-11T02:39:03.498Z,99.99
2018-03-11T02:40:03.513Z,99.99
2018-03-11T02:41:03.540Z,99.99
2018-03-11T02:42:03.290Z,99.99
2018-03-11T02:43:03.564Z,99.99
2018-03-11T02:44:03.586Z,99.99
2018-03-11T02:45:03.604Z,99.99
2018-03-11T02:46:03.615Z,99.99
2018-03-11T02:47:03.376Z,99.99
2018-03-11T02:48:03.391Z,99.99
2018-03-11T02:49:03.666Z,99.99
2018-03-11T02:50:03.693Z,99.99
2018-03-11T02:51:03.699Z,99.99
2018-03-11T02:52:03.738Z,99.99
2018-03-11T02:53:03.483Z,99.99
2018-03-11T02:54:18.415Z,99.99
2018-03-11T02:56:03.526Z,99.99
2018-03-11T02:57:03.799Z,99.99
2018-03-11T02:58:03.560Z,99.99
2018-03-11T02:59:03.834Z,99.99
2018-03-11T03:00:03.859Z,99.99
2018-03-11T03:01:03.611Z,99.99
2018-03-11T03:02:03.883Z,99.99
2018-03-11T03:03:03.911Z,99.99
2018-03-11T03:04:04.020Z,99.99
2018-03-11T03:05:03.677Z,99.99
2018-03-11T03:06:03.949Z,99.99
2018-03-11T03:07:03.971Z,99.99
2018-03-11T03:08:03.990Z,99.99
2018-03-11T03:10:18.686Z,99.99
2018-03-11T03:11:04.067Z,99.99
2018-03-11T03:12:04.052Z,99.99
2018-03-11T03:13:04.073Z,99.99
2018-03-11T03:14:04.086Z,99.99
2018-03-11T03:15:04.103Z,99.99
2018-03-11T03:16:04.120Z,99.99
2018-03-11T03:17:03.883Z,99.99
2018-03-11T03:18:04.153Z,99.99
2018-03-11T03:19:04.170Z,99.99
2018-03-11T03:20:04.186Z,99.99
2018-03-11T03:21:03.947Z,99.99
2018-03-11T03:22:03.963Z,99.99
2018-03-11T03:24:04.254Z,99.99
2018-03-11T03:25:18.938Z,99.99
2018-03-11T03:27:04.304Z,99.99
2018-03-11T03:28:04.319Z,99.99
2018-03-11T03:29:04.338Z,99.99
2018-03-11T03:30:04.355Z,99.99
2018-03-11T03:31:04.374Z,99.99
2018-03-11T03:32:04.395Z,99.99
2018-03-11T03:33:04.409Z,99.99
2018-03-11T03:34:04.421Z,99.99
2018-03-11T03:35:04.437Z,99.99
2018-03-11T03:36:04.454Z,99.99
2018-03-11T03:37:04.471Z,99.99
2018-03-11T03:38:04.490Z,99.99
2018-03-11T03:39:04.529Z,99.99
2018-03-11T03:42:04.556Z,99.99
2018-03-11T03:43:04.316Z,99.99
2018-03-11T03:44:04.588Z,99.99
2018-03-11T03:45:04.607Z,99.99
2018-03-11T03:46:04.621Z,99.99
2018-03-11T03:47:04.383Z,99.99
2018-03-11T03:48:04.656Z,99.99
2018-03-11T03:49:04.733Z,99.99
2018-03-11T03:50:04.722Z,99.99
2018-03-11T03:51:04.448Z,99.99
2018-03-11T03:52:04.723Z,99.99
2018-03-11T03:53:04.482Z,99.99
2018-03-11T03:54:04.758Z,99.99
2018-03-11T03:55:04.772Z,99.99
2018-03-11T03:56:04.794Z,99.99
2018-03-11T03:57:19.472Z,99.99
2018-03-11T03:58:04.564Z,99.99
2018-03-11T03:59:04.581Z,99.99
2018-03-11T04:00:04.597Z,99.99
2018-03-11T04:01:04.614Z,99.99
2018-03-11T04:02:04.631Z,99.99
2018-03-11T04:03:04.648Z,99.99
2018-03-11T04:04:04.923Z,99.99
2018-03-11T04:05:04.680Z,99.99
2018-03-11T04:06:04.697Z,99.99
2018-03-11T04:07:04.712Z,99.99
2018-03-11T04:08:04.731Z,99.99
2018-03-11T04:11:05.095Z,99.99
2018-03-11T04:12:05.054Z,99.99
2018-03-11T04:13:19.736Z,99.99
2018-03-11T04:14:04.830Z,99.99
2018-03-11T04:16:05.118Z,99.99
2018-03-11T04:17:05.134Z,99.99
2018-03-11T04:18:05.151Z,99.99
2018-03-11T04:19:04.910Z,99.99
2018-03-11T04:20:04.929Z,99.99
2018-03-11T04:21:04.945Z,99.99
2018-03-11T04:22:04.960Z,99.99
2018-03-11T04:23:05.236Z,99.99
2018-03-11T04:24:05.251Z,99.99
2018-03-11T04:25:05.268Z,99.99
2018-03-11T04:26:05.283Z,99.99
2018-03-11T04:27:05.305Z,99.99
2018-03-11T04:28:05.318Z,99.99
2018-03-11T04:29:20.000Z,99.99
2018-03-11T04:30:05.352Z,99.99
2018-03-11T04:31:05.110Z,99.99
2018-03-11T04:32:05.382Z,99.99
2018-03-11T04:33:05.400Z,99.99
2018-03-11T04:34:05.418Z,99.99
2018-03-11T04:35:05.430Z,99.99
2018-03-11T04:36:05.449Z,99.99
2018-03-11T04:37:05.465Z,99.99
2018-03-11T04:38:05.224Z,99.99
2018-03-11T04:39:05.239Z,99.99
2018-03-11T04:40:05.257Z,99.99
2018-03-11T04:41:05.538Z,99.99
2018-03-11T04:42:05.289Z,99.99
2018-03-11T04:43:05.561Z,99.99
2018-03-11T04:44:05.583Z,99.99
2018-03-11T04:45:20.264Z,99.99
2018-03-11T04:46:05.610Z,99.99
2018-03-11T04:47:05.371Z,99.99
2018-03-11T04:49:05.660Z,99.99
2018-03-11T04:50:05.681Z,99.99
2018-03-11T04:51:05.694Z,99.99
2018-03-11T04:52:05.453Z,99.99
2018-03-11T04:53:05.726Z,99.99
2018-03-11T04:54:05.739Z,99.99
2018-03-11T04:55:05.501Z,99.99
2018-03-11T04:56:05.774Z,99.99
2018-03-11T04:57:05.533Z,99.99
2018-03-11T04:58:05.805Z,99.99
2018-03-11T04:59:05.822Z,99.99
2018-03-11T05:00:20.507Z,99.99
2018-03-11T05:01:05.861Z,99.99
2018-03-11T05:02:05.615Z,99.99
2018-03-11T05:03:05.888Z,99.99
2018-03-11T05:04:05.908Z,99.99
2018-03-11T05:05:05.665Z,99.99
2018-03-11T05:06:05.935Z,99.99
2018-03-11T05:07:05.696Z,99.99
2018-03-11T05:08:05.969Z,99.99
2018-03-11T05:09:05.986Z,99.99
2018-03-11T05:10:06.001Z,99.99
2018-03-11T05:11:06.016Z,99.99
2018-03-11T05:12:05.778Z,99.99
2018-03-11T05:13:06.053Z,99.99
2018-03-11T05:14:06.066Z,99.99
2018-03-11T05:15:06.084Z,99.99
2018-03-11T05:16:06.100Z,99.99
2018-03-11T05:17:06.115Z,99.99
2018-03-11T05:18:05.875Z,99.99
2018-03-11T05:19:05.891Z,99.99
2018-03-11T05:20:05.907Z,99.99
2018-03-11T05:21:06.182Z,99.99
2018-03-11T05:22:05.939Z,99.99
2018-03-11T05:23:05.955Z,99.99
2018-03-11T05:24:05.972Z,99.99
2018-03-11T05:25:06.243Z,99.99
2018-03-11T05:26:06.009Z,99.99
2018-03-11T05:27:06.025Z,99.99
2018-03-11T05:28:06.040Z,99.99
2018-03-11T05:29:06.309Z,99.99
2018-03-11T05:30:06.068Z,99.99
2018-03-11T05:31:06.082Z,99.99
2018-03-11T05:32:21.024Z,99.99
2018-03-11T05:33:06.383Z,99.99
2018-03-11T05:34:06.132Z,99.99
2018-03-11T05:35:06.409Z,99.99
2018-03-11T05:36:06.425Z,99.99
2018-03-11T05:37:06.437Z,99.99
2018-03-11T05:38:06.451Z,99.99
2018-03-11T05:39:06.469Z,99.99
2018-03-11T05:40:06.486Z,99.99
2018-03-11T05:41:06.500Z,99.99
2018-03-11T05:42:06.517Z,99.99
2018-03-11T05:43:06.533Z,99.99
2018-03-11T05:44:06.549Z,99.99
2018-03-11T05:45:06.566Z,99.99
2018-03-11T05:46:06.580Z,99.99
2018-03-11T05:47:06.597Z,99.99
2018-03-11T05:48:21.282Z,99.99
2018-03-11T05:50:06.711Z,99.99
2018-03-11T05:51:06.703Z,99.99
2018-03-11T05:52:06.680Z,99.99
2018-03-11T05:53:06.719Z,99.99
2018-03-11T05:54:06.764Z,99.99
2018-03-11T05:55:06.732Z,99.99
2018-03-11T05:56:06.488Z,99.99
2018-03-11T05:57:06.762Z,99.99
2018-03-11T05:58:06.834Z,99.99
2018-03-11T05:59:06.796Z,99.99
2018-03-11T06:00:06.807Z,99.99
2018-03-11T06:01:06.570Z,99.99
2018-03-11T06:02:06.842Z,99.99
2018-03-11T06:03:06.864Z,99.99
2018-03-11T06:04:21.541Z,99.99
2018-03-11T06:05:06.889Z,99.99
2018-03-11T06:06:06.653Z,99.99
2018-03-11T06:08:06.940Z,99.99
2018-03-11T06:09:06.954Z,99.99
2018-03-11T06:10:06.973Z,99.99
2018-03-11T06:12:07.006Z,99.99
2018-03-11T06:13:07.026Z,99.99
2018-03-11T06:14:07.044Z,99.99
2018-03-11T06:15:07.057Z,99.99
2018-03-11T06:16:06.822Z,99.99
2018-03-11T06:17:07.116Z,99.99
2018-03-11T06:18:07.115Z,99.99
2018-03-11T06:19:07.131Z,99.99
2018-03-11T06:20:21.819Z,99.99
2018-03-11T06:21:07.171Z,99.99
2018-03-11T06:22:06.934Z,99.99
2018-03-11T06:23:07.207Z,99.99
2018-03-11T06:24:07.225Z,99.99
2018-03-11T06:25:07.263Z,99.99
2018-03-11T06:26:07.268Z,99.99
2018-03-11T06:27:07.032Z,99.99
2018-03-11T06:28:07.309Z,99.99
2018-03-11T06:29:07.331Z,99.99
2018-03-11T06:30:07.350Z,99.99
2018-03-11T06:31:07.470Z,99.99
2018-03-11T06:32:07.397Z,99.99
2018-03-11T06:34:07.183Z,99.99
2018-03-11T06:35:22.129Z,99.99
2018-03-11T06:36:07.482Z,99.99
2018-03-11T06:38:07.529Z,99.99
2018-03-11T06:39:07.552Z,99.99
2018-03-11T06:40:07.576Z,99.99
2018-03-11T06:41:07.598Z,99.99
2018-03-11T06:42:07.367Z,99.99
2018-03-11T06:43:07.648Z,99.99
2018-03-11T06:44:07.718Z,99.99
2018-03-11T06:45:07.692Z,99.99
2018-03-11T06:46:07.718Z,99.99
2018-03-11T06:48:07.513Z,99.99
2018-03-11T06:49:07.790Z,99.99
2018-03-11T06:50:07.558Z,99.99
2018-03-11T06:51:07.583Z,99.99
2018-03-11T06:53:07.634Z,99.99
2018-03-11T06:54:07.929Z,99.99
2018-03-11T06:55:07.947Z,99.99
2018-03-11T06:56:07.965Z,99.99
2018-03-11T06:57:07.995Z,99.99
2018-03-11T06:58:07.779Z,99.99
2018-03-11T06:59:08.040Z,99.99
2018-03-11T07:00:08.065Z,99.99
2018-03-11T07:01:07.836Z,99.99
2018-03-11T07:02:08.123Z,99.99
2018-03-11T07:03:07.891Z,99.99
2018-03-11T07:04:08.169Z,99.99
2018-03-11T07:05:08.195Z,99.99
2018-03-11T07:06:08.222Z,99.99
2018-03-11T07:07:22.917Z,99.99
2018-03-11T07:08:08.274Z,99.99
2018-03-11T07:10:08.326Z,99.99
2018-03-11T07:11:08.352Z,99.99
2018-03-11T07:12:08.378Z,99.99
2018-03-11T07:13:08.149Z,99.99
2018-03-11T07:14:08.275Z,99.99
2018-03-11T07:15:08.463Z,99.99
2018-03-11T07:16:08.485Z,99.99
2018-03-11T07:17:08.511Z,99.99
2018-03-11T07:18:08.281Z,99.99
2018-03-11T07:19:08.565Z,99.99
2018-03-11T07:20:08.333Z,99.99
2018-03-11T07:21:08.617Z,99.99
2018-03-11T07:22:08.681Z,99.99
2018-03-11T07:23:23.340Z,99.99
2018-03-11T07:24:08.696Z,99.99
2018-03-11T07:25:08.732Z,99.99
2018-03-11T07:26:08.755Z,99.99
2018-03-11T07:27:08.784Z,99.99
2018-03-11T07:28:08.803Z,99.99
2018-03-11T07:29:08.828Z,99.99
2018-03-11T07:30:08.855Z,99.99
2018-03-11T07:31:08.883Z,99.99
2018-03-11T07:32:08.908Z,99.99
2018-03-11T07:33:08.944Z,99.99
2018-03-11T07:34:08.962Z,99.99
2018-03-11T07:35:08.989Z,99.99
2018-03-11T07:36:08.759Z,99.99
2018-03-11T07:37:09.042Z,99.99
2018-03-11T07:38:09.129Z,99.99
2018-03-11T07:39:23.765Z,99.99
2018-03-11T07:41:09.188Z,99.99
2018-03-11T07:42:09.183Z,99.99
2018-03-11T07:43:09.207Z,99.99
2018-03-11T07:44:09.226Z,99.99
2018-03-11T07:45:09.279Z,99.99
2018-03-11T07:46:09.280Z,99.99
2018-03-11T07:47:09.052Z,99.99
2018-03-11T07:48:09.334Z,99.99
2018-03-11T07:49:09.361Z,99.99
2018-03-11T07:50:09.391Z,99.99
2018-03-11T07:51:09.413Z,99.99
2018-03-11T07:53:09.468Z,99.99
2018-03-11T07:54:09.491Z,99.99
2018-03-11T07:55:24.189Z,99.99
2018-03-11T07:56:09.550Z,99.99
2018-03-11T07:57:09.316Z,99.99
2018-03-11T07:58:09.597Z,99.99
2018-03-11T07:59:09.633Z,99.99
2018-03-11T08:00:09.395Z,99.99
2018-03-11T08:01:09.678Z,99.99
2018-03-11T08:02:09.709Z,99.99
2018-03-11T08:03:09.727Z,99.99
2018-03-11T08:04:09.764Z,99.99
2018-03-11T08:05:09.790Z,99.99
2018-03-11T08:06:09.810Z,99.99
2018-03-11T08:07:09.582Z,99.99
2018-03-11T08:08:09.874Z,99.99
2018-03-11T08:09:09.889Z,99.99
2018-03-11T08:10:24.585Z,99.99
2018-03-11T08:11:09.950Z,99.85
2018-03-11T08:12:09.966Z,99.57
2018-03-11T08:13:09.992Z,99.23
2018-03-11T08:14:10.020Z,98.99
2018-03-11T08:15:09.791Z,98.47
2018-03-11T08:16:10.094Z,98.57
2018-03-11T08:17:10.098Z,98.08
2018-03-11T08:18:10.126Z,97.85
2018-03-11T08:19:10.150Z,98.08
2018-03-11T08:20:10.177Z,98.18
2018-03-11T08:21:09.946Z,97.99
2018-03-11T08:22:10.230Z,97.8
2018-03-11T08:24:10.280Z,97.71
2018-03-11T08:25:10.307Z,97.71
2018-03-11T08:26:10.345Z,97.03
2018-03-11T08:28:10.385Z,95.94
2018-03-11T08:29:10.411Z,96.27
2018-03-11T08:30:10.181Z,96.61
2018-03-11T08:31:10.464Z,96.13
2018-03-11T08:32:10.504Z,95.75
2018-03-11T08:33:10.531Z,95.56
2018-03-11T08:34:10.284Z,95.32
2018-03-11T08:35:10.573Z,94.51
2018-03-11T08:36:10.641Z,94.98
2018-03-11T08:37:10.619Z,94.46
2018-03-11T08:38:10.645Z,94.79
2018-03-11T08:39:10.671Z,94.79
2018-03-11T08:40:10.696Z,95.36
2018-03-11T08:41:10.722Z,95.46
2018-03-11T08:42:25.418Z,94.93
2018-03-11T08:44:10.545Z,94.17
2018-03-11T08:45:10.825Z,92.93
2018-03-11T08:46:10.852Z,92.74
2018-03-11T08:47:10.879Z,93.31
2018-03-11T08:48:10.906Z,93.02
2018-03-11T08:49:10.928Z,94.17
2018-03-11T08:50:10.960Z,92.97
2018-03-11T08:51:10.727Z,93.69
2018-03-11T08:52:11.008Z,92.93
2018-03-11T08:53:11.034Z,93.35
2018-03-11T08:54:11.060Z,92.4
2018-03-11T08:55:11.085Z,92.97
2018-03-11T08:56:11.111Z,93.16
2018-03-11T08:57:10.884Z,92.97
2018-03-11T08:58:25.833Z,92.21
2018-03-11T08:59:10.934Z,92.78
2018-03-11T09:00:10.960Z,92.11
2018-03-11T09:01:11.240Z,93.07
2018-03-11T09:02:11.278Z,92.4
2018-03-11T09:03:11.294Z,92.69
2018-03-11T09:04:11.319Z,92.3
2018-03-11T09:05:11.347Z,93.93
2018-03-11T09:06:11.372Z,92.02
2018-03-11T09:07:11.397Z,91.25
2018-03-11T09:08:11.425Z,91.16
2018-03-11T09:09:11.451Z,91.3
2018-03-11T09:10:11.473Z,91.77
2018-03-11T09:11:11.246Z,91.49
2018-03-11T09:12:11.528Z,91.11
2018-03-11T09:13:11.551Z,90.09
2018-03-11T09:14:26.247Z,90.58
2018-03-11T09:16:11.629Z,89.04
2018-03-11T09:18:11.747Z,88.66
2018-03-11T09:19:11.710Z,89.04
2018-03-11T09:20:11.740Z,88.95
2018-03-11T09:21:11.762Z,88.85
2018-03-11T09:22:11.788Z,89.23
2018-03-11T09:23:11.556Z,89.43
2018-03-11T09:24:11.836Z,88.23
2018-03-11T09:25:11.863Z,88.03
2018-03-11T09:26:11.890Z,87.55
2018-03-11T09:27:11.921Z,87.08
2018-03-11T09:28:11.945Z,87.94
2018-03-11T09:29:11.964Z,87.55
2018-03-11T09:30:26.664Z,88.03
2018-03-11T09:31:12.026Z,86.21
2018-03-11T09:32:12.046Z,86.5
2018-03-11T09:34:12.098Z,86.41
2018-03-11T09:35:12.124Z,87.17
2018-03-11T09:36:12.151Z,86.21
2018-03-11T09:37:12.177Z,86.35
2018-03-11T09:38:11.951Z,86.21
2018-03-11T09:39:12.228Z,85.68
2018-03-11T09:40:12.257Z,86.5
2018-03-11T09:41:12.280Z,85.93
2018-03-11T09:42:12.306Z,85.97
2018-03-11T09:43:12.335Z,85.68
2018-03-11T09:44:12.360Z,85.3
2018-03-11T09:45:27.056Z,84.72
2018-03-11T09:46:12.411Z,85.01
2018-03-11T09:47:12.439Z,85.74
2018-03-11T09:48:12.464Z,84.72
2018-03-11T09:49:12.493Z,84.25
2018-03-11T09:50:12.518Z,84.82
2018-03-11T09:51:12.547Z,85.01
2018-03-11T09:52:12.570Z,84.77
2018-03-11T09:53:12.601Z,85.72
2018-03-11T09:54:12.621Z,83.81
2018-03-11T09:55:12.649Z,83.42
2018-03-11T09:56:12.418Z,83.91
2018-03-11T09:57:12.445Z,84.09
2018-03-11T09:58:12.728Z,83.42
2018-03-11T09:59:12.766Z,83.52
2018-03-11T10:00:12.527Z,84.19
2018-03-11T10:03:12.862Z,83.52
2018-03-11T10:04:12.887Z,83.48
2018-03-11T10:05:12.910Z,83.95
2018-03-11T10:06:12.933Z,83.81
2018-03-11T10:07:13.061Z,83.86
2018-03-11T10:08:12.991Z,83.38
2018-03-11T10:09:13.014Z,84.25
2018-03-11T10:10:12.783Z,84.82
2018-03-11T10:11:13.068Z,84.34
2018-03-11T10:12:13.096Z,83.91
2018-03-11T10:13:13.121Z,83.52
2018-03-11T10:14:13.142Z,83.33
2018-03-11T10:15:13.173Z,83.14
2018-03-11T10:16:12.940Z,83.09
2018-03-11T10:17:27.891Z,83.76
2018-03-11T10:18:13.248Z,84.25
2018-03-11T10:19:13.275Z,83.95
2018-03-11T10:20:13.299Z,83.67
2018-03-11T10:21:13.068Z,84.53
2018-03-11T10:22:13.095Z,85.11
2018-03-11T10:23:13.377Z,84.15
2018-03-11T10:24:13.405Z,84.34
2018-03-11T10:25:13.429Z,84.25
2018-03-11T10:26:13.454Z,84.05
2018-03-11T10:27:13.478Z,83.67
2018-03-11T10:28:13.510Z,83.72
2018-03-11T10:29:13.532Z,84.78
2018-03-11T10:30:13.622Z,85.45
2018-03-11T10:31:13.584Z,84.88
2018-03-11T10:32:13.355Z,85.16
2018-03-11T10:33:28.306Z,84.68
2018-03-11T10:35:13.687Z,84.91
2018-03-11T10:36:13.713Z,84.53
2018-03-11T10:37:13.738Z,85.21
2018-03-11T10:38:13.769Z,85.3
2018-03-11T10:39:13.793Z,85.49
2018-03-11T10:40:13.816Z,84.44
2018-03-11T10:41:13.841Z,84.15
2018-03-11T10:42:13.869Z,84.34
2018-03-11T10:43:13.893Z,84.72
2018-03-11T10:44:13.921Z,84.53
2018-03-11T10:45:13.944Z,84.63
2018-03-11T10:46:13.967Z,83.86
2018-03-11T10:47:13.998Z,83.67
2018-03-11T10:48:14.018Z,84.25
2018-03-11T10:49:28.712Z,84.72
2018-03-11T10:50:14.067Z,84.53
2018-03-11T10:51:14.098Z,84.19
2018-03-11T10:52:13.862Z,83.91
2018-03-11T10:53:14.147Z,83.38
2018-03-11T10:54:13.912Z,83.14
2018-03-11T10:55:14.196Z,83.86
2018-03-11T10:56:14.216Z,84.09
2018-03-11T10:57:13.986Z,83.38
2018-03-11T10:58:14.268Z,82.94
2018-03-11T10:59:14.037Z,83.52
2018-03-11T11:00:14.317Z,82.46
2018-03-11T11:01:14.344Z,82.18
2018-03-11T11:02:14.407Z,82.81
2018-03-11T11:03:14.393Z,82.42
2018-03-11T11:04:14.414Z,84.19
2018-03-11T11:05:29.115Z,82.75
2018-03-11T11:06:14.469Z,83.04
2018-03-11T11:07:14.493Z,82.94
2018-03-11T11:08:14.516Z,82.81
2018-03-11T11:09:14.543Z,82.27
2018-03-11T11:10:14.565Z,81.51
2018-03-11T11:11:14.590Z,81.7
2018-03-11T11:12:14.621Z,81.79
2018-03-11T11:13:14.638Z,81.12
2018-03-11T11:14:14.665Z,80.93
2018-03-11T11:15:14.691Z,80.4
2018-03-11T11:16:14.458Z,80.2
2018-03-11T11:17:14.740Z,79.91
2018-03-11T11:18:14.763Z,79.14
2018-03-11T11:19:14.788Z,79.76
2018-03-11T11:20:29.484Z,78.8
2018-03-11T11:21:14.588Z,77.84
2018-03-11T11:23:14.887Z,77.56
2018-03-11T11:24:14.913Z,78.13
2018-03-11T11:25:14.940Z,78.23
2018-03-11T11:26:14.961Z,76.88
2018-03-11T11:27:14.732Z,76.98
2018-03-11T11:28:15.015Z,77.36
2018-03-11T11:29:15.036Z,77.17
2018-03-11T11:30:14.807Z,77.46
2018-03-11T11:31:14.878Z,78.17
2018-03-11T11:32:15.221Z,76.69
2018-03-11T11:33:14.880Z,76.73
2018-03-11T11:34:14.905Z,76.02
2018-03-11T11:35:15.186Z,76.15
2018-03-11T11:36:15.209Z,75.35
2018-03-11T11:37:15.234Z,76.73
2018-03-11T11:38:15.261Z,77.08
2018-03-11T11:39:15.284Z,76.4
2018-03-11T11:40:15.308Z,76.31
2018-03-11T11:41:15.336Z,76.79
2018-03-11T11:42:15.359Z,76.79
2018-03-11T11:43:15.438Z,76.69
2018-03-11T11:44:15.410Z,77.75
2018-03-11T11:45:15.179Z,77.84
2018-03-11T11:46:15.458Z,77.17
2018-03-11T11:47:15.485Z,77.36
2018-03-11T11:48:15.513Z,76.59
2018-03-11T11:49:15.534Z,76.88
2018-03-11T11:50:15.565Z,76.79
2018-03-11T11:51:15.580Z,77.51
2018-03-11T11:52:30.279Z,77.42
2018-03-11T11:53:15.633Z,78.09
2018-03-11T11:54:15.660Z,78.23
2018-03-11T11:56:15.733Z,77.04
2018-03-11T11:57:15.736Z,76.94
2018-03-11T11:58:15.760Z,77.56
2018-03-11T11:59:15.785Z,78.38
2018-03-11T12:00:15.804Z,77.71
2018-03-11T12:01:15.830Z,77.71
2018-03-11T12:02:15.860Z,79.24
2018-03-11T12:03:15.884Z,78.96
2018-03-11T12:04:15.903Z,79.68
2018-03-11T12:05:15.935Z,80.26
2018-03-11T12:06:15.950Z,79.78
2018-03-11T12:07:15.977Z,80.45
2018-03-11T12:08:30.676Z,79.59
2018-03-11T12:09:16.032Z,79.97
2018-03-11T12:10:16.054Z,79.97
2018-03-11T12:11:16.073Z,79.14
2018-03-11T12:12:16.185Z,78.86
2018-03-11T12:13:16.122Z,78.67
2018-03-11T12:14:16.147Z,78.28
2018-03-11T12:15:16.174Z,78.57
2018-03-11T12:16:16.198Z,79.68
2018-03-11T12:17:15.966Z,79.88
2018-03-11T12:18:16.255Z,79.97
2018-03-11T12:19:16.270Z,79.49
2018-03-11T12:20:16.294Z,79.59
2018-03-11T12:21:16.321Z,78.92
2018-03-11T12:22:16.342Z,79.11
2018-03-11T12:23:16.368Z,79.39
2018-03-11T12:24:31.061Z,79.88
2018-03-11T12:25:16.417Z,79.53
2018-03-11T12:26:16.445Z,79.44
2018-03-11T12:27:16.569Z,79.34
2018-03-11T12:28:16.492Z,78.67
2018-03-11T12:29:16.515Z,79.05
2018-03-11T12:30:16.538Z,78.47
2018-03-11T12:31:16.562Z,79.14
2018-03-11T12:32:16.587Z,78.86
2018-03-11T12:33:16.610Z,78.96
2018-03-11T12:34:16.634Z,78.38
2018-03-11T12:35:16.658Z,78.38
2018-03-11T12:36:16.687Z,77.9
2018-03-11T12:37:16.708Z,78.47
2018-03-11T12:38:16.733Z,78.32
2018-03-11T12:39:16.756Z,78.42
2018-03-11T12:40:31.452Z,78.77
2018-03-11T12:42:16.832Z,78.47
2018-03-11T12:43:16.851Z,78.28
2018-03-11T12:44:16.883Z,78.28
2018-03-11T12:45:16.906Z,78.28
2018-03-11T12:46:16.927Z,79.05
2018-03-11T12:47:16.951Z,78.67
2018-03-11T12:48:16.977Z,78.47
2018-03-11T12:49:17.003Z,78.86
2018-03-11T12:50:17.028Z,78.67
2018-03-11T12:51:17.051Z,78.38
2018-03-11T12:52:17.073Z,78.38
2018-03-11T12:53:17.098Z,78.57
2018-03-11T12:54:17.123Z,79.14
2018-03-11T12:55:31.816Z,78.86
2018-03-11T12:56:16.916Z,78.86
2018-03-11T12:57:17.193Z,79.05
2018-03-11T12:58:17.222Z,79.63
2018-03-11T12:59:17.247Z,78.96
2018-03-11T13:00:17.267Z,79.14
2018-03-11T13:01:17.293Z,79.01
2018-03-11T13:02:17.060Z,78.96
2018-03-11T13:03:17.343Z,79.01
2018-03-11T13:04:17.363Z,79.63
2018-03-11T13:05:17.387Z,78.34
2018-03-11T13:06:17.412Z,78.77
2018-03-11T13:07:17.438Z,78.96
2018-03-11T13:08:17.462Z,78.92
2018-03-11T13:09:17.484Z,79.39
2018-03-11T13:10:17.508Z,79.91
2018-03-11T13:11:17.538Z,79.14
2018-03-11T13:13:17.578Z,79.11
2018-03-11T13:14:17.604Z,79.05
2018-03-11T13:15:17.630Z,78.28
2018-03-11T13:16:17.654Z,78.19
2018-03-11T13:17:17.680Z,78.67
2018-03-11T13:18:17.703Z,79.05
2018-03-11T13:19:17.726Z,78.96
2018-03-11T13:20:17.752Z,78.96
2018-03-11T13:21:17.775Z,78.38
2018-03-11T13:22:17.798Z,78.28
2018-03-11T13:23:17.828Z,78.57
2018-03-11T13:24:17.596Z,78.38
2018-03-11T13:25:17.874Z,77.9
2018-03-11T13:26:17.896Z,79.05
2018-03-11T13:27:32.589Z,78.38
2018-03-11T13:28:17.943Z,78.96
2018-03-11T13:31:18.021Z,77.84
2018-03-11T13:32:18.040Z,77.08
2018-03-11T13:33:18.064Z,76.64
2018-03-11T13:34:18.090Z,76.64
2018-03-11T13:35:18.113Z,75.29
2018-03-11T13:36:18.140Z,75.96
2018-03-11T13:37:18.209Z,75.29